Time;durP1;ratioP1;P1;durP2;ratioP2;P2;SDS_P1;SDS_P2;PMS_P1;PMS_P2;Temp;Humidity;BMP_temperature;BMP_pressure;BME280_temperature;BME280_humidity;BME280_pressure;Samples;Min_cycle;Max_cycle;Signal;HPM_P1;HPM_P2
2022/11/09 00:01:24;;;;;;;6.60;2.42;;;11.90;99.90;;;;;;4903984;29;20495;-65
2022/11/09 00:03:57;;;;;;;4.50;1.65;;;11.90;99.90;;;;;;4907902;29;20530;-65
2022/11/09 00:06:24;;;;;;;5.93;1.80;;;11.90;99.90;;;;;;4920042;29;20056;-65
2022/11/09 00:08:50;;;;;;;4.65;1.85;;;11.90;99.90;;;;;;4906651;29;20056;-64
2022/11/09 00:11:16;;;;;;;6.38;2.08;;;11.90;99.90;;;;;;4932779;28;20055;-65
2022/11/09 00:13:43;;;;;;;7.13;2.00;;;11.90;99.90;;;;;;4926819;29;20062;-64
2022/11/09 00:16:13;;;;;;;4.55;2.08;;;11.90;99.90;;;;;;4941382;28;20065;-65
2022/11/09 00:18:40;;;;;;;5.75;2.40;;;11.80;99.90;;;;;;4947998;28;20051;-64
2022/11/09 00:21:11;;;;;;;5.35;2.22;;;11.90;99.90;;;;;;4940912;28;20557;-65
2022/11/09 00:23:37;;;;;;;8.77;2.47;;;11.90;99.90;;;;;;4941750;28;20051;-64
2022/11/09 00:26:05;;;;;;;6.85;2.85;;;11.90;99.90;;;;;;4942814;28;20168;-64
2022/11/09 00:28:31;;;;;;;6.93;2.60;;;11.90;99.90;;;;;;4941334;28;20055;-64
2022/11/09 00:31:06;;;;;;;4.88;2.50;;;11.90;99.90;;;;;;4922434;28;20066;-65
2022/11/09 00:33:32;;;;;;;3.83;2.38;;;11.90;99.90;;;;;;4939937;28;20051;-64
2022/11/09 00:36:01;;;;;;;7.80;3.97;;;11.90;99.90;;;;;;4933839;28;20075;-64
2022/11/09 00:38:27;;;;;;;8.32;4.15;;;11.90;99.90;;;;;;4940096;28;20043;-65
2022/11/09 00:40:52;;;;;;;5.22;3.30;;;11.90;99.90;;;;;;4928352;29;20050;-64
2022/11/09 00:43:18;;;;;;;7.30;2.85;;;11.90;99.90;;;;;;4951861;28;20128;-64
2022/11/09 00:45:46;;;;;;;7.22;2.70;;;11.90;99.90;;;;;;4936824;28;20454;-64
2022/11/09 00:48:11;;;;;;;4.63;2.63;;;12.00;99.90;;;;;;4936953;28;20047;-65
2022/11/09 00:50:37;;;;;;;4.43;2.50;;;11.90;99.90;;;;;;4940007;28;20037;-65
2022/11/09 00:53:03;;;;;;;8.77;2.88;;;12.00;99.90;;;;;;4937431;28;20051;-65
2022/11/09 00:55:29;;;;;;;7.47;2.85;;;12.00;99.90;;;;;;4937344;28;20622;-64
2022/11/09 00:57:54;;;;;;;6.40;2.90;;;12.00;99.90;;;;;;4945061;28;20055;-64
2022/11/09 01:00:22;;;;;;;9.35;3.00;;;12.00;99.90;;;;;;4938100;28;20630;-65
2022/11/09 01:02:51;;;;;;;7.30;2.92;;;12.00;99.90;;;;;;4935584;28;20040;-64
2022/11/09 01:05:18;;;;;;;8.02;3.03;;;12.10;99.90;;;;;;4939680;28;20433;-64
2022/11/09 01:07:44;;;;;;;5.97;3.28;;;12.00;99.90;;;;;;4946705;28;20130;-64
2022/11/09 01:10:10;;;;;;;9.73;3.17;;;12.10;99.90;;;;;;4945323;28;20121;-66
2022/11/09 01:12:35;;;;;;;6.43;2.95;;;12.10;99.90;;;;;;4934977;28;20162;-64
2022/11/09 01:15:01;;;;;;;9.27;3.50;;;12.10;99.90;;;;;;4939291;28;20137;-64
2022/11/09 01:17:27;;;;;;;8.50;3.50;;;12.10;99.90;;;;;;4923999;29;20050;-65
2022/11/09 01:19:53;;;;;;;9.13;3.17;;;12.10;99.90;;;;;;4937506;28;20398;-65
2022/11/09 01:22:19;;;;;;;9.40;3.50;;;12.20;99.90;;;;;;4939644;28;20050;-64
2022/11/09 01:24:45;;;;;;;8.20;2.88;;;12.20;99.90;;;;;;4940806;28;20043;-66
2022/11/09 01:27:10;;;;;;;8.40;3.33;;;12.20;99.90;;;;;;4939728;28;20051;-65
2022/11/09 01:29:36;;;;;;;11.75;3.25;;;12.20;99.90;;;;;;4944410;28;20043;-64
2022/11/09 01:32:02;;;;;;;8.98;3.10;;;12.20;99.90;;;;;;4924188;29;20063;-64
2022/11/09 01:34:28;;;;;;;10.77;2.92;;;12.20;99.90;;;;;;4929455;28;20044;-65
2022/11/09 01:36:54;;;;;;;9.57;2.80;;;12.30;99.90;;;;;;4940909;28;20039;-64
2022/11/09 01:39:20;;;;;;;11.27;3.20;;;12.30;99.90;;;;;;4937436;28;20134;-65
2022/11/09 01:41:47;;;;;;;8.93;2.90;;;12.30;99.90;;;;;;4938068;28;20047;-64
2022/11/09 01:44:19;;;;;;;6.55;3.10;;;12.30;99.90;;;;;;4930099;29;20051;-64
2022/11/09 01:46:48;;;;;;;9.75;2.90;;;12.40;99.90;;;;;;4941053;28;20110;-65
2022/11/09 01:49:23;;;;;;;11.45;3.33;;;12.40;99.90;;;;;;4937731;28;20050;-64
2022/11/09 01:52:03;;;;;;;10.73;3.28;;;12.40;99.90;;;;;;4938439;28;20053;-64
2022/11/09 01:54:35;;;;;;;14.57;4.30;;;12.40;99.90;;;;;;4921208;28;20047;-64
2022/11/09 01:57:07;;;;;;;5.20;2.22;;;12.40;99.90;;;;;;4945909;28;20058;-64
2022/11/09 01:59:41;;;;;;;8.15;2.40;;;12.40;99.90;;;;;;4920310;29;20062;-65
2022/11/09 02:02:08;;;;;;;12.50;3.78;;;12.40;99.90;;;;;;4937339;28;20039;-64
2022/11/09 02:04:55;;;;;;;10.70;3.85;;;12.40;99.90;;;;;;4945490;28;20047;-64
2022/11/09 02:07:22;;;;;;;13.18;3.10;;;12.40;99.90;;;;;;4944877;28;20047;-65
2022/11/09 02:09:59;;;;;;;13.82;3.17;;;12.40;99.90;;;;;;4939818;28;20058;-65
2022/11/09 02:12:28;;;;;;;6.97;2.83;;;12.40;99.90;;;;;;4922923;29;20072;-65
2022/11/09 02:14:55;;;;;;;8.65;2.78;;;12.40;99.90;;;;;;4937035;28;20398;-65
2022/11/09 02:17:21;;;;;;;13.55;2.90;;;12.40;99.90;;;;;;4939250;28;20055;-64
2022/11/09 02:19:47;;;;;;;9.02;2.90;;;12.40;99.90;;;;;;4937551;28;20059;-64
2022/11/09 02:22:13;;;;;;;10.65;3.58;;;12.40;99.90;;;;;;4936582;28;20130;-65
2022/11/09 02:24:39;;;;;;;6.10;2.75;;;12.40;99.90;;;;;;4936388;28;20047;-64
2022/11/09 02:27:06;;;;;;;10.48;2.97;;;12.30;99.90;;;;;;4947693;28;20085;-64
2022/11/09 02:29:39;;;;;;;9.90;3.05;;;12.30;99.90;;;;;;4926851;28;20137;-64
2022/11/09 02:32:19;;;;;;;8.13;3.10;;;12.30;99.90;;;;;;4936581;28;20043;-65
2022/11/09 02:34:45;;;;;;;10.55;3.13;;;12.30;99.90;;;;;;4938256;28;20051;-64
2022/11/09 02:37:10;;;;;;;10.77;3.00;;;12.20;99.90;;;;;;4907787;28;20402;-65
2022/11/09 02:39:37;;;;;;;8.50;2.70;;;12.20;99.90;;;;;;4938265;28;20040;-65
2022/11/09 02:42:10;;;;;;;12.60;3.10;;;12.20;99.90;;;;;;4935545;28;20390;-64
2022/11/09 02:44:44;;;;;;;15.13;3.05;;;12.20;99.90;;;;;;4934849;28;20050;-65
2022/11/09 02:47:10;;;;;;;9.55;3.25;;;12.20;99.90;;;;;;4937993;28;20055;-64
2022/11/09 02:49:36;;;;;;;9.02;3.22;;;12.20;99.90;;;;;;4936727;28;20099;-64
2022/11/09 02:52:02;;;;;;;13.30;3.08;;;12.20;99.90;;;;;;4944616;28;20462;-64
2022/11/09 02:54:28;;;;;;;9.02;2.85;;;12.10;99.90;;;;;;4940856;28;20047;-65
2022/11/09 02:56:54;;;;;;;15.80;3.33;;;12.20;99.90;;;;;;4949632;28;20075;-64
2022/11/09 02:59:20;;;;;;;8.45;3.13;;;12.20;99.90;;;;;;4949457;28;20165;-65
2022/11/09 03:01:46;;;;;;;8.55;2.83;;;12.10;99.90;;;;;;4942366;28;20125;-65
2022/11/09 03:04:12;;;;;;;13.75;3.42;;;12.10;99.90;;;;;;4939100;28;20114;-64
2022/11/09 03:06:37;;;;;;;14.57;3.33;;;12.10;99.90;;;;;;4943896;28;20065;-64
2022/11/09 03:09:06;;;;;;;10.52;2.88;;;12.10;99.90;;;;;;4942632;28;20055;-64
2022/11/09 03:11:32;;;;;;;7.40;2.60;;;12.10;99.90;;;;;;4948317;28;20568;-64
2022/11/09 03:13:58;;;;;;;16.25;3.10;;;12.10;99.90;;;;;;4940338;28;20054;-64
2022/11/09 03:16:24;;;;;;;11.63;2.83;;;12.00;99.90;;;;;;4942295;28;20044;-65
2022/11/09 03:18:50;;;;;;;11.85;3.15;;;12.00;99.90;;;;;;4940092;28;20051;-65
2022/11/09 03:21:16;;;;;;;10.55;3.08;;;12.00;99.90;;;;;;4941954;28;20048;-64
2022/11/09 03:23:42;;;;;;;10.55;2.72;;;12.00;99.90;;;;;;4949350;28;20058;-65
2022/11/09 03:26:08;;;;;;;9.15;2.78;;;12.00;99.90;;;;;;4907126;28;20417;-65
2022/11/09 03:28:34;;;;;;;10.40;2.50;;;12.00;99.90;;;;;;4942296;28;20040;-64
2022/11/09 03:31:00;;;;;;;13.32;3.47;;;12.00;99.90;;;;;;4926175;28;20070;-65
2022/11/09 03:33:25;;;;;;;14.85;2.70;;;12.00;99.90;;;;;;4941927;28;20102;-64
2022/11/09 03:35:51;;;;;;;17.17;2.40;;;11.90;99.90;;;;;;4943433;28;20065;-64
2022/11/09 03:38:17;;;;;;;11.68;2.85;;;11.90;99.90;;;;;;4940991;28;20082;-65
2022/11/09 03:40:43;;;;;;;14.23;3.00;;;11.90;99.90;;;;;;4951216;28;20117;-64
2022/11/09 03:43:09;;;;;;;10.77;3.00;;;11.90;99.90;;;;;;4939173;28;20050;-64
2022/11/09 03:45:35;;;;;;;12.30;2.85;;;11.90;99.90;;;;;;4930683;29;20043;-64
2022/11/09 03:48:01;;;;;;;13.02;2.42;;;12.00;99.90;;;;;;4939028;28;20086;-65
2022/11/09 03:50:28;;;;;;;12.13;2.85;;;11.90;99.90;;;;;;4943878;28;20043;-64
2022/11/09 03:52:55;;;;;;;14.43;2.92;;;11.90;99.90;;;;;;4926058;29;20051;-65
2022/11/09 03:55:21;;;;;;;12.40;3.00;;;11.90;99.90;;;;;;4947704;28;20414;-65
2022/11/09 03:57:50;;;;;;;10.02;2.47;;;11.80;99.90;;;;;;4941497;28;20471;-64
2022/11/09 04:00:18;;;;;;;12.27;2.97;;;11.80;99.90;;;;;;4944895;28;20054;-65
2022/11/09 04:02:44;;;;;;;14.85;2.50;;;11.80;99.90;;;;;;4940921;28;20039;-64
2022/11/09 04:05:10;;;;;;;11.63;2.78;;;11.80;99.90;;;;;;4943848;28;20047;-64
2022/11/09 04:07:37;;;;;;;13.48;2.83;;;11.80;99.90;;;;;;4936922;28;20530;-64
2022/11/09 04:10:04;;;;;;;10.38;2.40;;;11.80;99.90;;;;;;4940705;28;20059;-64
2022/11/09 04:12:30;;;;;;;13.75;2.88;;;11.80;99.90;;;;;;4937865;28;20059;-64
2022/11/09 04:14:55;;;;;;;14.07;2.95;;;11.80;99.90;;;;;;4938316;28;20058;-64
2022/11/09 04:17:21;;;;;;;10.13;2.53;;;11.70;99.90;;;;;;4929423;28;20057;-65
2022/11/09 04:19:47;;;;;;;13.68;2.95;;;11.70;99.90;;;;;;4945797;28;20417;-65
2022/11/09 04:22:13;;;;;;;12.27;2.80;;;11.70;99.90;;;;;;4941562;28;20182;-64
2022/11/09 04:24:38;;;;;;;11.05;2.30;;;11.70;99.90;;;;;;4943972;28;20050;-63
2022/11/09 04:27:05;;;;;;;10.55;2.42;;;11.80;99.90;;;;;;4930098;29;20107;-64
2022/11/09 04:29:31;;;;;;;13.20;2.85;;;11.70;99.90;;;;;;4935405;28;20528;-64
2022/11/09 04:31:57;;;;;;;20.42;2.85;;;11.70;99.90;;;;;;4931927;29;20055;-65
2022/11/09 04:34:22;;;;;;;8.98;2.60;;;11.70;99.90;;;;;;4941238;28;20451;-64
2022/11/09 04:36:48;;;;;;;16.73;3.03;;;11.70;99.90;;;;;;4937535;28;20044;-64
2022/11/09 04:39:14;;;;;;;8.70;2.42;;;11.80;99.90;;;;;;4922294;29;20939;-65
2022/11/09 04:41:40;;;;;;;16.67;3.22;;;11.70;99.90;;;;;;4928788;28;20051;-64
2022/11/09 04:44:06;;;;;;;8.02;2.22;;;11.70;99.90;;;;;;4926353;28;20422;-64
2022/11/09 04:46:32;;;;;;;11.02;2.63;;;11.70;99.90;;;;;;4939728;28;20058;-65
2022/11/09 04:48:57;;;;;;;9.43;2.60;;;11.80;99.90;;;;;;4937534;28;20052;-65
2022/11/09 04:51:23;;;;;;;12.80;2.83;;;11.80;99.90;;;;;;4940352;28;20038;-65
2022/11/09 04:53:49;;;;;;;13.50;2.63;;;11.80;99.90;;;;;;4939979;28;20405;-64
2022/11/09 04:56:15;;;;;;;11.32;2.35;;;11.80;99.90;;;;;;4919327;29;20047;-65
2022/11/09 04:58:41;;;;;;;15.60;3.20;;;11.80;99.90;;;;;;4941529;28;20530;-64
2022/11/09 05:01:10;;;;;;;9.02;2.75;;;11.80;99.90;;;;;;4938099;28;20090;-65
2022/11/09 05:03:36;;;;;;;13.52;2.83;;;11.80;99.90;;;;;;4943947;28;20047;-64
2022/11/09 05:06:30;;;;;;;10.73;3.15;;;11.70;99.90;;;;;;4937674;28;20062;-65
2022/11/09 05:08:54;;;;;;;16.30;2.85;;;11.80;99.90;;;;;;4930675;28;20102;-64
2022/11/09 05:11:21;;;;;;;9.65;2.42;;;11.80;99.90;;;;;;4921597;29;20056;-66
2022/11/09 05:13:47;;;;;;;9.60;2.53;;;11.80;99.90;;;;;;4935054;28;20051;-64
2022/11/09 05:16:13;;;;;;;12.88;3.05;;;11.80;99.90;;;;;;4922328;28;20043;-65
2022/11/09 05:18:39;;;;;;;13.98;2.95;;;11.80;99.90;;;;;;4939724;28;20050;-65
2022/11/09 05:21:05;;;;;;;14.20;3.00;;;11.80;99.90;;;;;;4921489;28;20048;-65
2022/11/09 05:26:15;;;;;;;10.30;3.05;;;11.80;99.90;;;;;;4939374;28;20054;-65
2022/11/09 05:28:41;;;;;;;9.07;3.20;;;11.80;99.90;;;;;;4944298;28;20110;-65
2022/11/09 05:31:07;;;;;;;9.68;2.78;;;11.80;99.90;;;;;;4937682;28;20047;-64
2022/11/09 05:33:32;;;;;;;10.05;3.00;;;11.80;99.90;;;;;;4923978;29;20062;-64
2022/11/09 05:35:58;;;;;;;14.65;3.20;;;11.80;99.90;;;;;;4927819;28;20051;-65
2022/11/09 05:38:24;;;;;;;14.80;3.10;;;11.80;99.90;;;;;;4938036;28;20050;-64
2022/11/09 05:40:51;;;;;;;16.23;3.58;;;11.80;99.90;;;;;;4945816;28;20047;-65
2022/11/09 05:43:17;;;;;;;10.10;3.10;;;11.80;99.90;;;;;;4945105;28;20054;-65
2022/11/09 05:45:43;;;;;;;10.48;2.95;;;11.80;99.90;;;;;;4936889;28;20047;-65
2022/11/09 05:48:13;;;;;;;10.93;3.00;;;11.80;99.90;;;;;;4935408;28;20078;-64
2022/11/09 05:50:41;;;;;;;15.02;3.13;;;11.80;99.90;;;;;;4946149;28;20397;-64
2022/11/09 05:53:08;;;;;;;11.98;3.63;;;11.80;99.90;;;;;;4922742;28;20039;-64
2022/11/09 05:55:34;;;;;;;14.30;5.10;;;11.80;99.90;;;;;;4935759;28;20046;-64
2022/11/09 05:58:00;;;;;;;12.85;4.15;;;11.80;99.90;;;;;;4918304;29;20054;-65
2022/11/09 06:00:26;;;;;;;16.30;4.75;;;11.80;99.90;;;;;;4936543;28;20044;-65
2022/11/09 06:02:52;;;;;;;16.33;5.95;;;11.80;99.90;;;;;;4935284;28;20129;-65
2022/11/09 06:05:21;;;;;;;12.73;4.63;;;11.80;99.90;;;;;;4935074;29;20137;-64
2022/11/09 06:07:47;;;;;;;12.98;3.60;;;11.70;99.90;;;;;;4935485;28;20047;-64
2022/11/09 06:10:13;;;;;;;14.20;2.63;;;11.70;99.90;;;;;;4923365;29;20075;-64
2022/11/09 06:12:38;;;;;;;11.38;2.92;;;11.70;99.90;;;;;;4935707;28;20063;-64
2022/11/09 06:15:05;;;;;;;12.77;2.90;;;11.70;99.90;;;;;;4937380;28;20047;-64
2022/11/09 06:17:31;;;;;;;11.30;3.20;;;11.70;99.90;;;;;;4932654;28;20056;-64
2022/11/09 06:19:56;;;;;;;14.70;2.72;;;11.70;99.90;;;;;;4938674;28;20051;-64
2022/11/09 06:22:22;;;;;;;10.85;3.00;;;11.70;99.90;;;;;;4931888;28;20047;-65
2022/11/09 06:24:48;;;;;;;13.15;2.92;;;11.70;99.90;;;;;;4942566;29;20183;-65
2022/11/09 06:27:14;;;;;;;14.65;3.03;;;11.60;99.90;;;;;;4937453;28;20504;-65
2022/11/09 06:29:39;;;;;;;12.27;2.80;;;11.60;99.90;;;;;;4937485;28;20047;-65
2022/11/09 06:32:05;;;;;;;14.48;2.85;;;11.60;99.90;;;;;;4929776;29;20058;-65
2022/11/09 06:34:31;;;;;;;16.95;3.38;;;11.60;99.90;;;;;;4925911;28;20346;-65
2022/11/09 06:36:57;;;;;;;11.10;2.50;;;11.60;99.90;;;;;;4933273;28;20478;-64
2022/11/09 06:39:22;;;;;;;14.15;3.00;;;11.60;99.90;;;;;;4937972;28;20046;-64
2022/11/09 06:41:48;;;;;;;9.23;3.55;;;11.50;99.90;;;;;;4930608;28;20043;-65
2022/11/09 06:44:14;;;;;;;10.00;2.78;;;11.60;99.90;;;;;;4937616;28;20048;-64
2022/11/09 06:46:40;;;;;;;10.23;2.80;;;11.60;99.90;;;;;;4935397;29;20114;-65
2022/11/09 06:49:06;;;;;;;13.10;4.43;;;11.60;99.90;;;;;;4937151;28;20053;-64
2022/11/09 06:51:32;;;;;;;9.20;3.05;;;11.50;99.90;;;;;;4940882;29;20486;-65
2022/11/09 06:53:57;;;;;;;9.30;2.95;;;11.50;99.90;;;;;;4937599;29;20660;-64
2022/11/09 06:56:23;;;;;;;12.27;2.88;;;11.50;99.90;;;;;;4936992;28;20482;-64
2022/11/09 06:58:49;;;;;;;18.00;3.38;;;11.50;99.90;;;;;;4931559;28;20054;-65
2022/11/09 07:01:18;;;;;;;9.90;2.75;;;11.50;99.90;;;;;;4935028;29;20090;-64
2022/11/09 07:03:43;;;;;;;13.63;3.05;;;11.50;99.90;;;;;;4937435;29;20702;-65
2022/11/09 07:06:11;;;;;;;12.20;2.75;;;11.50;99.90;;;;;;4934615;28;20085;-66
2022/11/09 07:08:38;;;;;;;10.05;2.92;;;11.50;99.90;;;;;;4926069;28;20044;-65
2022/11/09 07:11:09;;;;;;;9.27;2.53;;;11.40;99.90;;;;;;4927582;29;20047;-64
2022/11/09 07:13:35;;;;;;;9.93;2.75;;;11.40;99.90;;;;;;4899667;29;20605;-65
2022/11/09 07:16:00;;;;;;;12.60;2.38;;;11.40;99.90;;;;;;4907412;29;20083;-64
2022/11/09 07:18:26;;;;;;;13.05;3.08;;;11.40;99.90;;;;;;4907165;29;20048;-64
2022/11/09 07:20:52;;;;;;;12.63;3.45;;;11.40;99.90;;;;;;4898288;29;20051;-64
2022/11/09 07:23:18;;;;;;;11.43;2.88;;;11.40;99.90;;;;;;4908073;29;20112;-65
2022/11/09 07:25:44;;;;;;;12.77;3.10;;;11.40;99.90;;;;;;4893436;29;20490;-65
2022/11/09 07:28:11;;;;;;;8.85;2.50;;;11.40;99.90;;;;;;4914395;29;20050;-64
2022/11/09 07:30:37;;;;;;;14.68;2.70;;;11.40;99.90;;;;;;4906372;29;20048;-63
2022/11/09 07:33:10;;;;;;;12.73;2.72;;;11.40;99.90;;;;;;4905270;29;20051;-65
2022/11/09 07:35:36;;;;;;;13.82;2.80;;;11.40;99.90;;;;;;4921491;29;21244;-64
2022/11/09 07:38:01;;;;;;;11.93;2.90;;;11.40;99.90;;;;;;4903693;29;20052;-64
2022/11/09 07:40:28;;;;;;;11.38;2.40;;;11.50;99.90;;;;;;4901660;29;20119;-64
2022/11/09 07:42:58;;;;;;;8.20;2.70;;;11.50;99.90;;;;;;4918397;29;20047;-65
2022/11/09 07:45:24;;;;;;;15.05;2.83;;;11.50;99.90;;;;;;4908547;29;20132;-63
2022/11/09 07:47:57;;;;;;;13.85;3.15;;;11.50;99.90;;;;;;4908667;29;20052;-64
2022/11/09 07:50:24;;;;;;;15.05;2.55;;;11.50;99.90;;;;;;4905850;29;20103;-64
2022/11/09 07:52:50;;;;;;;13.15;2.88;;;11.50;99.90;;;;;;4908537;29;20048;-65
2022/11/09 07:55:16;;;;;;;13.18;3.60;;;11.50;99.90;;;;;;4883777;29;20044;-64
2022/11/09 07:57:43;;;;;;;16.20;5.68;;;11.50;99.90;;;;;;4925624;29;20054;-64
2022/11/09 08:00:10;;;;;;;13.85;3.50;;;11.50;99.90;;;;;;4910046;29;20503;-63
2022/11/09 08:02:36;;;;;;;13.63;4.30;;;11.50;99.90;;;;;;4915349;29;20063;-64
2022/11/09 08:05:02;;;;;;;15.43;6.25;;;11.60;99.90;;;;;;4911101;29;20518;-64
2022/11/09 08:07:28;;;;;;;16.00;6.00;;;11.60;99.90;;;;;;4906275;29;20083;-65
2022/11/09 08:09:54;;;;;;;15.77;5.70;;;11.60;99.90;;;;;;4914841;29;20052;-64
2022/11/09 08:12:20;;;;;;;14.65;4.30;;;11.60;99.90;;;;;;4928348;29;20066;-64
2022/11/09 08:14:46;;;;;;;12.43;3.85;;;11.60;99.90;;;;;;4942579;29;20909;-63
2022/11/09 08:17:11;;;;;;;13.55;4.82;;;11.70;99.90;;;;;;4949115;29;20059;-64
2022/11/09 08:19:37;;;;;;;13.65;5.90;;;11.70;99.90;;;;;;4943476;29;20051;-64
2022/11/09 08:22:03;;;;;;;21.10;6.60;;;11.70;99.90;;;;;;4924928;29;20040;-64
2022/11/09 08:24:29;;;;;;;17.00;7.10;;;11.80;99.90;;;;;;4923900;29;20525;-64
2022/11/09 08:26:54;;;;;;;14.10;6.72;;;11.80;99.90;;;;;;4948931;28;20043;-64
2022/11/09 08:29:20;;;;;;;15.63;4.85;;;11.80;99.90;;;;;;4940705;29;20414;-64
2022/11/09 08:31:50;;;;;;;15.73;5.88;;;11.90;99.90;;;;;;4946076;29;20039;-64
2022/11/09 08:34:16;;;;;;;16.67;6.18;;;11.90;99.90;;;;;;4949386;29;20070;-64
2022/11/09 08:36:42;;;;;;;16.88;5.93;;;11.90;99.90;;;;;;4934641;29;20039;-64
2022/11/09 08:39:08;;;;;;;16.25;5.63;;;12.00;99.90;;;;;;4937132;29;20047;-64
2022/11/09 08:41:35;;;;;;;12.27;5.80;;;12.00;99.90;;;;;;4933105;29;20054;-64
2022/11/09 08:44:01;;;;;;;15.00;6.20;;;12.10;99.90;;;;;;4943664;29;20079;-64
2022/11/09 08:46:27;;;;;;;16.60;5.38;;;12.10;99.90;;;;;;4943684;29;20061;-65
2022/11/09 08:48:53;;;;;;;15.88;4.07;;;12.20;99.90;;;;;;4939863;29;20047;-64
2022/11/09 08:51:18;;;;;;;13.73;2.90;;;12.30;99.90;;;;;;4938711;29;20442;-64
2022/11/09 08:53:44;;;;;;;14.18;3.42;;;12.30;99.90;;;;;;4935132;29;20055;-64
2022/11/09 08:56:11;;;;;;;10.88;2.97;;;12.40;99.90;;;;;;4945994;29;20043;-64
2022/11/09 08:58:38;;;;;;;10.35;2.80;;;12.50;99.90;;;;;;4937236;29;20090;-64
2022/11/09 09:01:08;;;;;;;12.63;3.45;;;12.60;99.90;;;;;;4933251;29;20043;-63
2022/11/09 09:03:34;;;;;;;10.10;3.40;;;12.70;99.90;;;;;;4936608;29;20524;-64
2022/11/09 09:06:07;;;;;;;13.43;3.13;;;12.70;99.90;;;;;;4947666;28;20059;-64
2022/11/09 09:08:33;;;;;;;13.20;3.88;;;12.80;99.90;;;;;;4940645;28;20059;-64
2022/11/09 09:11:03;;;;;;;11.88;3.65;;;12.80;99.90;;;;;;4935383;29;20056;-65
2022/11/09 09:13:30;;;;;;;12.88;3.75;;;12.90;99.90;;;;;;4924411;29;20048;-65
2022/11/09 09:15:55;;;;;;;9.88;3.72;;;12.90;99.90;;;;;;4924805;29;20047;-64
2022/11/09 09:18:21;;;;;;;13.25;3.10;;;13.00;99.90;;;;;;4893176;29;20055;-64
2022/11/09 09:20:47;;;;;;;9.40;4.13;;;13.00;99.90;;;;;;4904839;29;20043;-65
2022/11/09 09:23:14;;;;;;;16.67;5.15;;;13.10;99.90;;;;;;4907939;29;20060;-65
2022/11/09 09:25:40;;;;;;;13.70;5.10;;;13.20;99.90;;;;;;4900463;29;20043;-64
2022/11/09 09:28:06;;;;;;;16.35;5.95;;;13.20;99.90;;;;;;4907406;29;20550;-65
2022/11/09 09:30:31;;;;;;;16.48;5.78;;;13.30;99.90;;;;;;4881722;29;20131;-65
2022/11/09 09:32:59;;;;;;;18.92;6.07;;;13.40;99.90;;;;;;4899778;29;20048;-64
2022/11/09 09:35:26;;;;;;;14.27;5.55;;;13.40;99.90;;;;;;4913532;29;20471;-65
2022/11/09 09:37:53;;;;;;;18.67;5.60;;;13.50;99.90;;;;;;4915184;29;20051;-65
2022/11/09 09:40:32;;;;;;;13.77;4.50;;;13.60;99.90;;;;;;4910385;29;20051;-64
2022/11/09 09:42:58;;;;;;;12.93;3.10;;;13.60;99.90;;;;;;4901434;29;20041;-65
2022/11/09 09:45:31;;;;;;;10.30;3.30;;;13.70;99.90;;;;;;4907896;29;20044;-64
2022/11/09 09:48:04;;;;;;;13.05;4.88;;;13.70;99.90;;;;;;4914686;29;20107;-64
2022/11/09 09:50:44;;;;;;;14.75;5.35;;;13.80;99.90;;;;;;4923027;29;20048;-64
2022/11/09 09:53:19;;;;;;;15.40;3.80;;;13.80;99.90;;;;;;4901505;29;20163;-65
2022/11/09 09:55:59;;;;;;;10.57;3.65;;;13.80;99.90;;;;;;4892462;29;20477;-64
2022/11/09 09:58:27;;;;;;;11.75;2.60;;;13.90;99.90;;;;;;4912671;29;20039;-65
2022/11/09 10:01:18;;;;;;;12.30;2.92;;;13.90;99.90;;;;;;4900043;29;20135;-65
2022/11/09 10:03:48;;;;;;;11.30;2.85;;;13.90;99.90;;;;;;4921096;29;20051;-64
2022/11/09 10:07:00;;;;;;;11.75;3.08;;;13.90;99.90;;;;;;4915216;29;20150;-64
2022/11/09 10:09:53;;;;;;;12.82;4.15;;;13.90;99.90;;;;;;4894826;29;20491;-65
2022/11/09 10:12:34;;;;;;;15.77;3.70;;;14.00;99.90;;;;;;4914422;29;20090;-66
2022/11/09 10:15:09;;;;;;;11.05;4.05;;;14.10;99.90;;;;;;4935936;29;20048;-66
2022/11/09 10:17:48;;;;;;;12.80;3.08;;;14.10;99.90;;;;;;4939854;29;20082;-64
2022/11/09 10:20:38;;;;;;;14.15;3.45;;;14.20;99.90;;;;;;4947044;29;20047;-65
2022/11/09 10:23:23;;;;;;;17.08;4.80;;;14.10;99.90;;;;;;4942203;28;20577;-67
2022/11/09 10:25:53;;;;;;;17.48;4.32;;;14.20;99.90;;;;;;4936894;29;20520;-64
2022/11/09 10:28:25;;;;;;;16.42;3.80;;;14.20;99.90;;;;;;4935747;28;20409;-64
2022/11/09 10:30:51;;;;;;;11.43;4.50;;;14.20;99.90;;;;;;4938079;28;20510;-65
2022/11/09 10:33:20;;;;;;;14.07;5.32;;;14.30;99.90;;;;;;4941129;28;20307;-65
2022/11/09 10:35:57;;;;;;;14.85;6.20;;;14.40;99.90;;;;;;4933829;28;20055;-64
2022/11/09 10:38:32;;;;;;;14.65;4.97;;;14.40;99.90;;;;;;4932609;28;20052;-65
2022/11/09 10:41:23;;;;;;;13.38;4.05;;;14.40;99.90;;;;;;4939346;28;20059;-65
2022/11/09 10:43:49;;;;;;;19.23;4.15;;;14.40;99.90;;;;;;4900032;28;20127;-65
2022/11/09 10:46:14;;;;;;;16.05;4.93;;;14.30;99.90;;;;;;4934711;28;20074;-64
2022/11/09 10:48:40;;;;;;;15.02;4.22;;;14.30;99.90;;;;;;4935546;28;20047;-65
2022/11/09 10:51:42;;;;;;;13.20;4.03;;;14.30;99.90;;;;;;4917757;29;20398;-65
2022/11/09 10:54:27;;;;;;;12.20;3.40;;;14.20;99.90;;;;;;4934009;28;20090;-64
2022/11/09 10:57:13;;;;;;;13.15;4.22;;;14.10;99.90;;;;;;4936114;28;20051;-64
2022/11/09 10:59:45;;;;;;;12.70;4.85;;;14.20;99.90;;;;;;4932298;28;20040;-64
2022/11/09 11:02:23;;;;;;;18.67;9.20;;;14.10;99.90;;;;;;4946603;28;20046;-64
2022/11/09 11:04:49;;;;;;;9.27;4.45;;;14.10;99.90;;;;;;4931879;28;20799;-65
2022/11/09 11:07:20;;;;;;;17.05;5.50;;;14.10;99.90;;;;;;4932513;28;20039;-65
2022/11/09 11:09:46;;;;;;;14.25;5.32;;;14.10;99.90;;;;;;4931474;28;20130;-64
2022/11/09 11:12:19;;;;;;;15.52;4.70;;;14.00;99.90;;;;;;4928553;28;20154;-64
2022/11/09 11:14:46;;;;;;;10.43;4.68;;;14.00;99.90;;;;;;4897800;29;20111;-64
2022/11/09 11:17:35;;;;;;;19.73;4.85;;;14.00;99.90;;;;;;4914208;29;20047;-64
2022/11/09 11:20:34;;;;;;;14.60;4.78;;;13.90;99.90;;;;;;4902144;29;20056;-65
2022/11/09 11:23:24;;;;;;;12.18;4.05;;;13.80;99.90;;;;;;4885357;29;20056;-64
2022/11/09 11:25:53;;;;;;;10.48;3.25;;;13.80;99.90;;;;;;4908389;29;20119;-64
2022/11/09 11:28:39;;;;;;;12.30;3.85;;;13.80;99.90;;;;;;4891684;29;20099;-65
2022/11/09 11:31:12;;;;;;;12.70;3.50;;;13.80;99.90;;;;;;4900161;29;20525;-65
2022/11/09 11:33:39;;;;;;;11.82;3.67;;;13.80;99.90;;;;;;4894369;29;20094;-65
2022/11/09 11:36:57;;;;;;;10.98;3.45;;;13.80;99.90;;;;;;4904801;29;20044;-65
2022/11/09 11:39:39;;;;;;;11.20;3.20;;;13.90;99.90;;;;;;4893777;29;20055;-65
2022/11/09 11:42:19;;;;;;;12.98;4.30;;;13.90;99.90;;;;;;4906870;29;20047;-65
2022/11/09 11:45:00;;;;;;;18.27;5.70;;;13.90;99.90;;;;;;4908619;29;20059;-65
2022/11/09 11:47:40;;;;;;;14.73;5.47;;;13.80;99.90;;;;;;4907724;29;20138;-64
2022/11/09 11:50:24;;;;;;;18.52;5.32;;;13.90;99.90;;;;;;4905717;29;20059;-65
2022/11/09 11:53:15;;;;;;;15.30;4.30;;;13.90;99.90;;;;;;4912252;29;20130;-65
2022/11/09 11:56:08;;;;;;;13.23;5.43;;;14.00;99.90;;;;;;4895193;29;20044;-64
2022/11/09 11:58:52;;;;;;;15.38;5.00;;;14.10;99.90;;;;;;4907162;29;20044;-65
2022/11/09 12:01:44;;;;;;;11.75;5.03;;;14.00;99.90;;;;;;4908360;29;20043;-69
2022/11/09 12:04:20;;;;;;;14.77;3.90;;;14.10;99.90;;;;;;4898845;29;20127;-65
2022/11/09 12:07:09;;;;;;;17.10;4.13;;;14.20;99.90;;;;;;4906010;29;20528;-67
2022/11/09 12:10:12;;;;;;;11.98;5.03;;;14.30;99.90;;;;;;4888021;29;20055;-65
2022/11/09 12:12:41;;;;;;;12.68;3.30;;;14.30;99.90;;;;;;4916124;28;20067;-67
2022/11/09 12:15:33;;;;;;;12.48;4.00;;;14.30;99.90;;;;;;4928518;28;20065;-69
2022/11/09 12:18:23;;;;;;;13.98;4.32;;;14.10;99.90;;;;;;4928430;29;20052;-68
2022/11/09 12:21:15;;;;;;;12.77;4.03;;;14.00;99.90;;;;;;4936575;28;20047;-68
2022/11/09 12:23:48;;;;;;;15.25;4.72;;;14.00;99.90;;;;;;4931152;29;20077;-68
2022/11/09 12:26:32;;;;;;;14.43;5.72;;;13.90;99.90;;;;;;4935016;29;20162;-68
2022/11/09 12:29:16;;;;;;;10.15;3.95;;;13.80;99.90;;;;;;4943094;28;21201;-68
2022/11/09 12:31:53;;;;;;;15.45;4.47;;;13.80;99.90;;;;;;4935309;29;20055;-68
2022/11/09 12:34:25;;;;;;;14.77;6.35;;;13.80;99.90;;;;;;4920971;29;20051;-67
2022/11/09 12:37:03;;;;;;;13.45;4.75;;;13.70;99.90;;;;;;4930926;29;20056;-69
2022/11/09 12:40:17;;;;;;;14.23;3.80;;;13.70;99.90;;;;;;4931351;29;20402;-65
2022/11/09 12:42:52;;;;;;;13.73;5.57;;;13.60;99.90;;;;;;4888441;29;20164;-70
2022/11/09 12:45:42;;;;;;;15.23;4.95;;;13.60;99.90;;;;;;4910834;29;21113;-65
2022/11/09 12:48:24;;;;;;;15.85;5.18;;;13.70;99.90;;;;;;4926524;28;20066;-69
2022/11/09 12:50:51;;;;;;;14.60;4.68;;;13.60;99.90;;;;;;4931034;28;20118;-69
2022/11/09 12:53:21;;;;;;;19.05;6.28;;;13.70;99.90;;;;;;4934656;29;20052;-69
2022/11/09 12:55:59;;;;;;;14.15;5.30;;;13.70;99.90;;;;;;4931114;29;20414;-69